sensor_id;sensor_type;location;lat;lon;timestamp;P1;durP1;ratioP1;P2;durP2;ratioP2
7049;SDS011;22263;52.260;10.548;2024-03-22T00:01:54;0.50;;;0.50;;
7049;SDS011;22263;52.260;10.548;2024-03-22T00:04:21;0.50;;;0.50;;
7049;SDS011;22263;52.260;10.548;2024-03-22T00:06:47;0.50;;;0.50;;
7049;SDS011;22263;52.260;10.548;2024-03-22T00:09:14;0.50;;;0.50;;
7049;SDS011;22263;52.260;10.548;2024-03-22T00:11:40;0.40;;;0.40;;
7049;SDS011;22263;52.260;10.548;2024-03-22T00:14:06;0.50;;;0.50;;
7049;SDS011;22263;52.260;10.548;2024-03-22T00:16:32;0.50;;;0.50;;
7049;SDS011;22263;52.260;10.548;2024-03-22T00:19:01;0.50;;;0.50;;
7049;SDS011;22263;52.260;10.548;2024-03-22T00:21:27;0.50;;;0.50;;
7049;SDS011;22263;52.260;10.548;2024-03-22T00:23:53;0.50;;;0.50;;
7049;SDS011;22263;52.260;10.548;2024-03-22T00:26:19;0.40;;;0.40;;
7049;SDS011;22263;52.260;10.548;2024-03-22T00:28:44;0.40;;;0.40;;
7049;SDS011;22263;52.260;10.548;2024-03-22T00:31:10;0.40;;;0.40;;
7049;SDS011;22263;52.260;10.548;2024-03-22T00:33:36;0.50;;;0.50;;
7049;SDS011;22263;52.260;10.548;2024-03-22T00:36:05;0.40;;;0.40;;
7049;SDS011;22263;52.260;10.548;2024-03-22T00:38:31;0.40;;;0.40;;
7049;SDS011;22263;52.260;10.548;2024-03-22T00:40:57;0.40;;;0.40;;
7049;SDS011;22263;52.260;10.548;2024-03-22T00:43:24;0.50;;;0.50;;
7049;SDS011;22263;52.260;10.548;2024-03-22T00:45:53;0.40;;;0.40;;
7049;SDS011;22263;52.260;10.548;2024-03-22T00:48:19;0.40;;;0.40;;
7049;SDS011;22263;52.260;10.548;2024-03-22T00:50:45;0.50;;;0.50;;
7049;SDS011;22263;52.260;10.548;2024-03-22T00:53:13;0.40;;;0.40;;
7049;SDS011;22263;52.260;10.548;2024-03-22T00:55:39;0.40;;;0.40;;
7049;SDS011;22263;52.260;10.548;2024-03-22T00:58:05;0.40;;;0.40;;
7049;SDS011;22263;52.260;10.548;2024-03-22T01:00:31;0.40;;;0.40;;
7049;SDS011;22263;52.260;10.548;2024-03-22T01:02:57;0.50;;;0.50;;
7049;SDS011;22263;52.260;10.548;2024-03-22T01:05:26;0.50;;;0.50;;
7049;SDS011;22263;52.260;10.548;2024-03-22T01:07:51;0.40;;;0.40;;
7049;SDS011;22263;52.260;10.548;2024-03-22T01:10:20;0.40;;;0.40;;
7049;SDS011;22263;52.260;10.548;2024-03-22T01:12:46;0.40;;;0.40;;
7049;SDS011;22263;52.260;10.548;2024-03-22T01:15:12;0.40;;;0.40;;
7049;SDS011;22263;52.260;10.548;2024-03-22T01:17:37;0.60;;;0.60;;
7049;SDS011;22263;52.260;10.548;2024-03-22T01:20:04;0.40;;;0.40;;
7049;SDS011;22263;52.260;10.548;2024-03-22T01:22:30;0.40;;;0.40;;
7049;SDS011;22263;52.260;10.548;2024-03-22T01:24:59;0.45;;;0.45;;
7049;SDS011;22263;52.260;10.548;2024-03-22T01:27:27;0.43;;;0.43;;
7049;SDS011;22263;52.260;10.548;2024-03-22T01:29:53;0.40;;;0.40;;
7049;SDS011;22263;52.260;10.548;2024-03-22T01:32:19;0.50;;;0.50;;
7049;SDS011;22263;52.260;10.548;2024-03-22T01:34:48;0.40;;;0.40;;
7049;SDS011;22263;52.260;10.548;2024-03-22T01:37:14;0.40;;;0.40;;
7049;SDS011;22263;52.260;10.548;2024-03-22T01:39:40;0.40;;;0.40;;
7049;SDS011;22263;52.260;10.548;2024-03-22T01:42:06;0.40;;;0.40;;
7049;SDS011;22263;52.260;10.548;2024-03-22T01:44:34;0.40;;;0.40;;
7049;SDS011;22263;52.260;10.548;2024-03-22T01:47:00;0.50;;;0.50;;
7049;SDS011;22263;52.260;10.548;2024-03-22T01:49:29;0.40;;;0.40;;
7049;SDS011;22263;52.260;10.548;2024-03-22T01:51:55;0.40;;;0.40;;
7049;SDS011;22263;52.260;10.548;2024-03-22T01:54:22;0.40;;;0.40;;
7049;SDS011;22263;52.260;10.548;2024-03-22T01:56:48;0.40;;;0.40;;
7049;SDS011;22263;52.260;10.548;2024-03-22T01:59:14;0.40;;;0.40;;
7049;SDS011;22263;52.260;10.548;2024-03-22T02:01:43;0.40;;;0.40;;
7049;SDS011;22263;52.260;10.548;2024-03-22T02:04:09;0.43;;;0.43;;
7049;SDS011;22263;52.260;10.548;2024-03-22T02:06:35;0.40;;;0.40;;
7049;SDS011;22263;52.260;10.548;2024-03-22T02:09:01;0.50;;;0.50;;
7049;SDS011;22263;52.260;10.548;2024-03-22T02:11:27;0.40;;;0.40;;
7049;SDS011;22263;52.260;10.548;2024-03-22T02:13:54;0.40;;;0.40;;
7049;SDS011;22263;52.260;10.548;2024-03-22T02:16:20;0.40;;;0.40;;
7049;SDS011;22263;52.260;10.548;2024-03-22T02:18:48;0.40;;;0.40;;
7049;SDS011;22263;52.260;10.548;2024-03-22T02:21:15;0.40;;;0.40;;
7049;SDS011;22263;52.260;10.548;2024-03-22T02:23:43;0.40;;;0.40;;
7049;SDS011;22263;52.260;10.548;2024-03-22T02:26:09;0.40;;;0.40;;
7049;SDS011;22263;52.260;10.548;2024-03-22T02:28:35;0.40;;;0.40;;
7049;SDS011;22263;52.260;10.548;2024-03-22T02:31:02;0.40;;;0.40;;
7049;SDS011;22263;52.260;10.548;2024-03-22T02:33:27;0.40;;;0.40;;
7049;SDS011;22263;52.260;10.548;2024-03-22T02:35:53;0.40;;;0.40;;
7049;SDS011;22263;52.260;10.548;2024-03-22T02:38:19;0.40;;;0.40;;
7049;SDS011;22263;52.260;10.548;2024-03-22T02:40:48;0.40;;;0.40;;
7049;SDS011;22263;52.260;10.548;2024-03-22T02:43:14;0.40;;;0.40;;
7049;SDS011;22263;52.260;10.548;2024-03-22T02:45:40;0.40;;;0.40;;
7049;SDS011;22263;52.260;10.548;2024-03-22T02:48:06;0.43;;;0.43;;
7049;SDS011;22263;52.260;10.548;2024-03-22T02:50:32;0.40;;;0.40;;
7049;SDS011;22263;52.260;10.548;2024-03-22T02:52:58;0.40;;;0.40;;
7049;SDS011;22263;52.260;10.548;2024-03-22T02:55:24;0.47;;;0.47;;
7049;SDS011;22263;52.260;10.548;2024-03-22T02:57:53;0.45;;;0.45;;
7049;SDS011;22263;52.260;10.548;2024-03-22T03:00:19;0.50;;;0.50;;
7049;SDS011;22263;52.260;10.548;2024-03-22T03:02:45;0.40;;;0.40;;
7049;SDS011;22263;52.260;10.548;2024-03-22T03:05:11;0.40;;;0.40;;
7049;SDS011;22263;52.260;10.548;2024-03-22T03:07:37;0.60;;;0.60;;
7049;SDS011;22263;52.260;10.548;2024-03-22T03:10:03;0.40;;;0.40;;
7049;SDS011;22263;52.260;10.548;2024-03-22T03:12:29;0.50;;;0.50;;
7049;SDS011;22263;52.260;10.548;2024-03-22T03:14:57;0.50;;;0.50;;
7049;SDS011;22263;52.260;10.548;2024-03-22T03:17:23;0.40;;;0.40;;
7049;SDS011;22263;52.260;10.548;2024-03-22T03:19:49;0.40;;;0.40;;
7049;SDS011;22263;52.260;10.548;2024-03-22T03:22:15;0.50;;;0.50;;
7049;SDS011;22263;52.260;10.548;2024-03-22T03:24:41;0.50;;;0.50;;
7049;SDS011;22263;52.260;10.548;2024-03-22T03:27:07;0.40;;;0.40;;
7049;SDS011;22263;52.260;10.548;2024-03-22T03:29:33;0.40;;;0.40;;
7049;SDS011;22263;52.260;10.548;2024-03-22T03:32:02;0.40;;;0.40;;
7049;SDS011;22263;52.260;10.548;2024-03-22T03:34:27;0.50;;;0.50;;
7049;SDS011;22263;52.260;10.548;2024-03-22T03:36:53;0.40;;;0.40;;
7049;SDS011;22263;52.260;10.548;2024-03-22T03:39:19;0.40;;;0.40;;
7049;SDS011;22263;52.260;10.548;2024-03-22T03:41:45;0.40;;;0.40;;
7049;SDS011;22263;52.260;10.548;2024-03-22T03:44:11;0.40;;;0.40;;
7049;SDS011;22263;52.260;10.548;2024-03-22T03:46:37;0.50;;;0.50;;
7049;SDS011;22263;52.260;10.548;2024-03-22T03:49:05;0.43;;;0.43;;
7049;SDS011;22263;52.260;10.548;2024-03-22T03:51:31;0.50;;;0.50;;
7049;SDS011;22263;52.260;10.548;2024-03-22T03:53:57;0.47;;;0.47;;
7049;SDS011;22263;52.260;10.548;2024-03-22T03:56:23;0.40;;;0.40;;
7049;SDS011;22263;52.260;10.548;2024-03-22T03:58:49;0.47;;;0.47;;
7049;SDS011;22263;52.260;10.548;2024-03-22T04:01:15;0.40;;;0.40;;
7049;SDS011;22263;52.260;10.548;2024-03-22T04:03:41;0.50;;;0.50;;
7049;SDS011;22263;52.260;10.548;2024-03-22T04:06:09;0.50;;;0.50;;
7049;SDS011;22263;52.260;10.548;2024-03-22T04:08:35;0.50;;;0.50;;
7049;SDS011;22263;52.260;10.548;2024-03-22T04:11:01;0.40;;;0.40;;
7049;SDS011;22263;52.260;10.548;2024-03-22T04:13:27;0.40;;;0.40;;
7049;SDS011;22263;52.260;10.548;2024-03-22T04:15:53;0.40;;;0.40;;
7049;SDS011;22263;52.260;10.548;2024-03-22T04:18:19;0.50;;;0.50;;
7049;SDS011;22263;52.260;10.548;2024-03-22T04:20:52;0.50;;;0.50;;
7049;SDS011;22263;52.260;10.548;2024-03-22T04:23:21;0.50;;;0.50;;
7049;SDS011;22263;52.260;10.548;2024-03-22T04:25:51;0.60;;;0.60;;
7049;SDS011;22263;52.260;10.548;2024-03-22T04:28:17;0.50;;;0.50;;
7049;SDS011;22263;52.260;10.548;2024-03-22T04:30:43;0.40;;;0.40;;
7049;SDS011;22263;52.260;10.548;2024-03-22T04:33:09;0.47;;;0.47;;
7049;SDS011;22263;52.260;10.548;2024-03-22T04:35:35;0.50;;;0.50;;
7049;SDS011;22263;52.260;10.548;2024-03-22T04:38:01;0.40;;;0.40;;
7049;SDS011;22263;52.260;10.548;2024-03-22T04:40:29;0.50;;;0.50;;
7049;SDS011;22263;52.260;10.548;2024-03-22T04:42:55;0.50;;;0.50;;
7049;SDS011;22263;52.260;10.548;2024-03-22T04:45:21;0.40;;;0.40;;
7049;SDS011;22263;52.260;10.548;2024-03-22T04:47:46;0.50;;;0.50;;
7049;SDS011;22263;52.260;10.548;2024-03-22T04:50:12;0.40;;;0.40;;
7049;SDS011;22263;52.260;10.548;2024-03-22T04:52:39;0.40;;;0.40;;
7049;SDS011;22263;52.260;10.548;2024-03-22T04:55:05;0.50;;;0.50;;
7049;SDS011;22263;52.260;10.548;2024-03-22T04:57:33;0.40;;;0.40;;
7049;SDS011;22263;52.260;10.548;2024-03-22T04:59:59;0.40;;;0.40;;
7049;SDS011;22263;52.260;10.548;2024-03-22T05:02:25;0.43;;;0.43;;
7049;SDS011;22263;52.260;10.548;2024-03-22T05:04:51;0.40;;;0.40;;
7049;SDS011;22263;52.260;10.548;2024-03-22T05:07:17;0.40;;;0.40;;
7049;SDS011;22263;52.260;10.548;2024-03-22T05:09:43;0.45;;;0.45;;
7049;SDS011;22263;52.260;10.548;2024-03-22T05:12:08;0.40;;;0.40;;
7049;SDS011;22263;52.260;10.548;2024-03-22T05:14:37;0.40;;;0.40;;
7049;SDS011;22263;52.260;10.548;2024-03-22T05:17:03;0.40;;;0.40;;
7049;SDS011;22263;52.260;10.548;2024-03-22T05:19:29;0.40;;;0.40;;
7049;SDS011;22263;52.260;10.548;2024-03-22T05:21:55;0.40;;;0.40;;
7049;SDS011;22263;52.260;10.548;2024-03-22T05:24:21;0.40;;;0.40;;
7049;SDS011;22263;52.260;10.548;2024-03-22T05:26:46;0.47;;;0.47;;
7049;SDS011;22263;52.260;10.548;2024-03-22T05:29:12;0.40;;;0.40;;
7049;SDS011;22263;52.260;10.548;2024-03-22T05:31:48;0.57;;;0.57;;
7049;SDS011;22263;52.260;10.548;2024-03-22T05:34:14;0.50;;;0.50;;
7049;SDS011;22263;52.260;10.548;2024-03-22T05:36:40;0.43;;;0.43;;
7049;SDS011;22263;52.260;10.548;2024-03-22T05:39:06;0.40;;;0.40;;
7049;SDS011;22263;52.260;10.548;2024-03-22T05:41:32;0.50;;;0.50;;
7049;SDS011;22263;52.260;10.548;2024-03-22T05:43:57;0.40;;;0.40;;
7049;SDS011;22263;52.260;10.548;2024-03-22T05:46:23;0.50;;;0.50;;
7049;SDS011;22263;52.260;10.548;2024-03-22T05:48:52;0.50;;;0.50;;
7049;SDS011;22263;52.260;10.548;2024-03-22T05:51:17;0.40;;;0.40;;
7049;SDS011;22263;52.260;10.548;2024-03-22T05:53:43;0.50;;;0.50;;
7049;SDS011;22263;52.260;10.548;2024-03-22T05:56:09;0.40;;;0.40;;
7049;SDS011;22263;52.260;10.548;2024-03-22T05:58:35;0.40;;;0.40;;
7049;SDS011;22263;52.260;10.548;2024-03-22T06:01:01;0.40;;;0.40;;
7049;SDS011;22263;52.260;10.548;2024-03-22T06:03:27;0.40;;;0.40;;
7049;SDS011;22263;52.260;10.548;2024-03-22T06:05:55;0.40;;;0.40;;
7049;SDS011;22263;52.260;10.548;2024-03-22T06:08:21;0.40;;;0.40;;
7049;SDS011;22263;52.260;10.548;2024-03-22T06:10:47;0.40;;;0.40;;
7049;SDS011;22263;52.260;10.548;2024-03-22T06:13:13;0.40;;;0.40;;
7049;SDS011;22263;52.260;10.548;2024-03-22T06:15:40;0.50;;;0.50;;
7049;SDS011;22263;52.260;10.548;2024-03-22T06:18:06;0.40;;;0.40;;
7049;SDS011;22263;52.260;10.548;2024-03-22T06:20:31;0.40;;;0.40;;
7049;SDS011;22263;52.260;10.548;2024-03-22T06:23:00;0.40;;;0.40;;
7049;SDS011;22263;52.260;10.548;2024-03-22T06:25:26;0.40;;;0.40;;
7049;SDS011;22263;52.260;10.548;2024-03-22T06:27:52;0.40;;;0.40;;
7049;SDS011;22263;52.260;10.548;2024-03-22T06:30:17;0.40;;;0.40;;
7049;SDS011;22263;52.260;10.548;2024-03-22T06:32:43;0.43;;;0.43;;
7049;SDS011;22263;52.260;10.548;2024-03-22T06:35:09;0.40;;;0.40;;
7049;SDS011;22263;52.260;10.548;2024-03-22T06:37:35;0.40;;;0.40;;
7049;SDS011;22263;52.260;10.548;2024-03-22T06:40:04;0.40;;;0.40;;
7049;SDS011;22263;52.260;10.548;2024-03-22T06:42:30;0.40;;;0.40;;
7049;SDS011;22263;52.260;10.548;2024-03-22T06:44:56;0.40;;;0.40;;
7049;SDS011;22263;52.260;10.548;2024-03-22T06:47:22;0.40;;;0.40;;
7049;SDS011;22263;52.260;10.548;2024-03-22T06:49:48;0.50;;;0.50;;
7049;SDS011;22263;52.260;10.548;2024-03-22T06:52:14;0.40;;;0.40;;
7049;SDS011;22263;52.260;10.548;2024-03-22T06:54:40;0.30;;;0.30;;
7049;SDS011;22263;52.260;10.548;2024-03-22T06:57:08;0.40;;;0.40;;
7049;SDS011;22263;52.260;10.548;2024-03-22T06:59:34;0.40;;;0.40;;
7049;SDS011;22263;52.260;10.548;2024-03-22T07:02:00;0.50;;;0.50;;
7049;SDS011;22263;52.260;10.548;2024-03-22T07:04:26;0.40;;;0.40;;
7049;SDS011;22263;52.260;10.548;2024-03-22T07:06:51;0.50;;;0.50;;
7049;SDS011;22263;52.260;10.548;2024-03-22T07:09:17;0.57;;;0.57;;
7049;SDS011;22263;52.260;10.548;2024-03-22T07:11:43;0.40;;;0.40;;
7049;SDS011;22263;52.260;10.548;2024-03-22T07:14:12;0.50;;;0.50;;
7049;SDS011;22263;52.260;10.548;2024-03-22T07:16:38;0.40;;;0.40;;
7049;SDS011;22263;52.260;10.548;2024-03-22T07:19:04;0.40;;;0.40;;
7049;SDS011;22263;52.260;10.548;2024-03-22T07:21:29;0.40;;;0.40;;
7049;SDS011;22263;52.260;10.548;2024-03-22T07:23:55;0.40;;;0.40;;
7049;SDS011;22263;52.260;10.548;2024-03-22T07:26:21;0.40;;;0.40;;
7049;SDS011;22263;52.260;10.548;2024-03-22T07:28:47;0.40;;;0.40;;
7049;SDS011;22263;52.260;10.548;2024-03-22T07:31:16;0.40;;;0.40;;
7049;SDS011;22263;52.260;10.548;2024-03-22T07:33:41;0.30;;;0.30;;
7049;SDS011;22263;52.260;10.548;2024-03-22T07:36:07;0.30;;;0.30;;
7049;SDS011;22263;52.260;10.548;2024-03-22T07:38:33;0.40;;;0.40;;
7049;SDS011;22263;52.260;10.548;2024-03-22T07:40:59;0.40;;;0.40;;
7049;SDS011;22263;52.260;10.548;2024-03-22T07:43:25;0.40;;;0.40;;
7049;SDS011;22263;52.260;10.548;2024-03-22T07:45:51;0.40;;;0.40;;
7049;SDS011;22263;52.260;10.548;2024-03-22T07:48:19;0.40;;;0.40;;
7049;SDS011;22263;52.260;10.548;2024-03-22T07:50:45;0.40;;;0.40;;
7049;SDS011;22263;52.260;10.548;2024-03-22T07:53:11;0.40;;;0.40;;
7049;SDS011;22263;52.260;10.548;2024-03-22T07:55:37;0.40;;;0.40;;
7049;SDS011;22263;52.260;10.548;2024-03-22T07:58:03;0.40;;;0.40;;
7049;SDS011;22263;52.260;10.548;2024-03-22T08:00:29;0.35;;;0.35;;
7049;SDS011;22263;52.260;10.548;2024-03-22T08:02:55;0.30;;;0.30;;
7049;SDS011;22263;52.260;10.548;2024-03-22T08:05:23;0.30;;;0.30;;
7049;SDS011;22263;52.260;10.548;2024-03-22T08:07:50;0.40;;;0.40;;
7049;SDS011;22263;52.260;10.548;2024-03-22T08:10:16;0.30;;;0.30;;
7049;SDS011;22263;52.260;10.548;2024-03-22T08:12:42;0.30;;;0.30;;
7049;SDS011;22263;52.260;10.548;2024-03-22T08:15:08;0.40;;;0.40;;
7049;SDS011;22263;52.260;10.548;2024-03-22T08:17:34;0.40;;;0.40;;
7049;SDS011;22263;52.260;10.548;2024-03-22T08:20:00;0.32;;;0.32;;
7049;SDS011;22263;52.260;10.548;2024-03-22T08:22:28;0.40;;;0.40;;
7049;SDS011;22263;52.260;10.548;2024-03-22T08:24:54;0.30;;;0.30;;
7049;SDS011;22263;52.260;10.548;2024-03-22T08:27:20;0.40;;;0.40;;
7049;SDS011;22263;52.260;10.548;2024-03-22T08:29:46;0.40;;;0.40;;
7049;SDS011;22263;52.260;10.548;2024-03-22T08:32:11;0.40;;;0.40;;
7049;SDS011;22263;52.260;10.548;2024-03-22T08:34:37;0.40;;;0.40;;
7049;SDS011;22263;52.260;10.548;2024-03-22T08:37:03;0.40;;;0.40;;
7049;SDS011;22263;52.260;10.548;2024-03-22T08:39:32;0.40;;;0.40;;
7049;SDS011;22263;52.260;10.548;2024-03-22T08:41:58;0.40;;;0.40;;
7049;SDS011;22263;52.260;10.548;2024-03-22T08:44:23;0.30;;;0.30;;
7049;SDS011;22263;52.260;10.548;2024-03-22T08:46:49;0.40;;;0.40;;
7049;SDS011;22263;52.260;10.548;2024-03-22T08:49:15;0.40;;;0.40;;
7049;SDS011;22263;52.260;10.548;2024-03-22T08:51:41;0.40;;;0.40;;
7049;SDS011;22263;52.260;10.548;2024-03-22T08:54:07;0.40;;;0.40;;
7049;SDS011;22263;52.260;10.548;2024-03-22T08:56:35;0.40;;;0.40;;
7049;SDS011;22263;52.260;10.548;2024-03-22T08:59:02;0.35;;;0.35;;
7049;SDS011;22263;52.260;10.548;2024-03-22T09:01:27;0.30;;;0.30;;
7049;SDS011;22263;52.260;10.548;2024-03-22T09:03:53;0.40;;;0.40;;
7049;SDS011;22263;52.260;10.548;2024-03-22T09:06:19;0.30;;;0.30;;
7049;SDS011;22263;52.260;10.548;2024-03-22T09:08:45;0.40;;;0.40;;
7049;SDS011;22263;52.260;10.548;2024-03-22T09:11:11;0.40;;;0.40;;
7049;SDS011;22263;52.260;10.548;2024-03-22T09:13:39;0.40;;;0.40;;
7049;SDS011;22263;52.260;10.548;2024-03-22T09:16:05;0.40;;;0.40;;
7049;SDS011;22263;52.260;10.548;2024-03-22T09:18:31;0.30;;;0.30;;
7049;SDS011;22263;52.260;10.548;2024-03-22T09:20:57;0.40;;;0.40;;
7049;SDS011;22263;52.260;10.548;2024-03-22T09:23:23;0.40;;;0.40;;
7049;SDS011;22263;52.260;10.548;2024-03-22T09:25:48;0.38;;;0.38;;
7049;SDS011;22263;52.260;10.548;2024-03-22T09:28:15;0.43;;;0.43;;
7049;SDS011;22263;52.260;10.548;2024-03-22T09:30:43;0.40;;;0.40;;
7049;SDS011;22263;52.260;10.548;2024-03-22T09:33:09;0.30;;;0.30;;
7049;SDS011;22263;52.260;10.548;2024-03-22T09:35:35;0.32;;;0.32;;
7049;SDS011;22263;52.260;10.548;2024-03-22T09:38:01;0.40;;;0.40;;
7049;SDS011;22263;52.260;10.548;2024-03-22T09:40:27;0.30;;;0.30;;
7049;SDS011;22263;52.260;10.548;2024-03-22T09:42:53;0.30;;;0.30;;
7049;SDS011;22263;52.260;10.548;2024-03-22T09:45:19;0.40;;;0.40;;
7049;SDS011;22263;52.260;10.548;2024-03-22T09:47:48;0.40;;;0.40;;
7049;SDS011;22263;52.260;10.548;2024-03-22T09:50:13;0.40;;;0.40;;
7049;SDS011;22263;52.260;10.548;2024-03-22T09:52:40;0.40;;;0.40;;
7049;SDS011;22263;52.260;10.548;2024-03-22T09:55:07;0.40;;;0.40;;
7049;SDS011;22263;52.260;10.548;2024-03-22T09:57:34;0.40;;;0.40;;
7049;SDS011;22263;52.260;10.548;2024-03-22T10:00:01;0.40;;;0.40;;
7049;SDS011;22263;52.260;10.548;2024-03-22T10:02:37;0.30;;;0.30;;
7049;SDS011;22263;52.260;10.548;2024-03-22T10:05:06;0.38;;;0.38;;
7049;SDS011;22263;52.260;10.548;2024-03-22T10:07:32;0.30;;;0.30;;
7049;SDS011;22263;52.260;10.548;2024-03-22T10:09:58;0.30;;;0.30;;
7049;SDS011;22263;52.260;10.548;2024-03-22T10:12:24;0.30;;;0.30;;
7049;SDS011;22263;52.260;10.548;2024-03-22T10:14:52;0.30;;;0.30;;
7049;SDS011;22263;52.260;10.548;2024-03-22T10:17:18;0.30;;;0.30;;
7049;SDS011;22263;52.260;10.548;2024-03-22T10:19:43;0.40;;;0.40;;
7049;SDS011;22263;52.260;10.548;2024-03-22T10:22:12;0.40;;;0.40;;
7049;SDS011;22263;52.260;10.548;2024-03-22T10:24:38;0.35;;;0.35;;
7049;SDS011;22263;52.260;10.548;2024-03-22T10:27:04;0.40;;;0.40;;
7049;SDS011;22263;52.260;10.548;2024-03-22T10:29:30;0.40;;;0.40;;
7049;SDS011;22263;52.260;10.548;2024-03-22T10:31:55;0.30;;;0.30;;
7049;SDS011;22263;52.260;10.548;2024-03-22T10:34:21;0.30;;;0.30;;
7049;SDS011;22263;52.260;10.548;2024-03-22T10:36:48;0.30;;;0.30;;
7049;SDS011;22263;52.260;10.548;2024-03-22T10:39:17;0.30;;;0.30;;
7049;SDS011;22263;52.260;10.548;2024-03-22T10:41:44;0.40;;;0.40;;
7049;SDS011;22263;52.260;10.548;2024-03-22T10:44:10;0.30;;;0.30;;
7049;SDS011;22263;52.260;10.548;2024-03-22T10:46:36;0.30;;;0.30;;
7049;SDS011;22263;52.260;10.548;2024-03-22T10:49:02;0.30;;;0.30;;
7049;SDS011;22263;52.260;10.548;2024-03-22T10:51:28;0.35;;;0.35;;
7049;SDS011;22263;52.260;10.548;2024-03-22T10:53:54;0.30;;;0.30;;
7049;SDS011;22263;52.260;10.548;2024-03-22T10:56:24;0.30;;;0.30;;
7049;SDS011;22263;52.260;10.548;2024-03-22T10:58:50;0.30;;;0.30;;
7049;SDS011;22263;52.260;10.548;2024-03-22T11:01:23;0.30;;;0.30;;
7049;SDS011;22263;52.260;10.548;2024-03-22T11:03:49;0.30;;;0.30;;
7049;SDS011;22263;52.260;10.548;2024-03-22T11:06:17;0.30;;;0.30;;
7049;SDS011;22263;52.260;10.548;2024-03-22T11:08:43;0.30;;;0.30;;
7049;SDS011;22263;52.260;10.548;2024-03-22T11:11:10;0.30;;;0.30;;
7049;SDS011;22263;52.260;10.548;2024-03-22T11:13:39;0.30;;;0.30;;
7049;SDS011;22263;52.260;10.548;2024-03-22T11:16:05;0.30;;;0.30;;
7049;SDS011;22263;52.260;10.548;2024-03-22T11:18:31;0.30;;;0.30;;
7049;SDS011;22263;52.260;10.548;2024-03-22T11:20:57;0.30;;;0.30;;
7049;SDS011;22263;52.260;10.548;2024-03-22T11:23:24;0.30;;;0.30;;
7049;SDS011;22263;52.260;10.548;2024-03-22T11:25:50;0.30;;;0.30;;
7049;SDS011;22263;52.260;10.548;2024-03-22T11:28:17;0.30;;;0.30;;
7049;SDS011;22263;52.260;10.548;2024-03-22T11:30:48;0.30;;;0.30;;
7049;SDS011;22263;52.260;10.548;2024-03-22T11:33:14;0.30;;;0.30;;
7049;SDS011;22263;52.260;10.548;2024-03-22T11:35:40;0.30;;;0.30;;
7049;SDS011;22263;52.260;10.548;2024-03-22T11:38:06;0.30;;;0.30;;
7049;SDS011;22263;52.260;10.548;2024-03-22T11:40:32;0.30;;;0.30;;
7049;SDS011;22263;52.260;10.548;2024-03-22T11:42:59;0.30;;;0.30;;
7049;SDS011;22263;52.260;10.548;2024-03-22T11:45:25;0.30;;;0.30;;
7049;SDS011;22263;52.260;10.548;2024-03-22T11:47:54;0.30;;;0.30;;
7049;SDS011;22263;52.260;10.548;2024-03-22T11:50:20;0.30;;;0.30;;
7049;SDS011;22263;52.260;10.548;2024-03-22T11:52:46;0.30;;;0.30;;
7049;SDS011;22263;52.260;10.548;2024-03-22T11:55:13;0.30;;;0.30;;
7049;SDS011;22263;52.260;10.548;2024-03-22T11:57:39;0.30;;;0.30;;
7049;SDS011;22263;52.260;10.548;2024-03-22T12:00:05;0.30;;;0.30;;
7049;SDS011;22263;52.260;10.548;2024-03-22T12:02:37;0.30;;;0.30;;
7049;SDS011;22263;52.260;10.548;2024-03-22T12:05:06;0.30;;;0.30;;
7049;SDS011;22263;52.260;10.548;2024-03-22T12:07:32;0.30;;;0.30;;
7049;SDS011;22263;52.260;10.548;2024-03-22T12:09:58;0.30;;;0.30;;
7049;SDS011;22263;52.260;10.548;2024-03-22T12:12:26;0.25;;;0.25;;
7049;SDS011;22263;52.260;10.548;2024-03-22T12:14:53;0.30;;;0.30;;
7049;SDS011;22263;52.260;10.548;2024-03-22T12:17:18;0.30;;;0.30;;
7049;SDS011;22263;52.260;10.548;2024-03-22T12:19:44;0.30;;;0.30;;
7049;SDS011;22263;52.260;10.548;2024-03-22T12:22:13;0.40;;;0.40;;
7049;SDS011;22263;52.260;10.548;2024-03-22T12:24:39;0.30;;;0.30;;
7049;SDS011;22263;52.260;10.548;2024-03-22T12:27:05;0.30;;;0.30;;
7049;SDS011;22263;52.260;10.548;2024-03-22T12:29:31;0.30;;;0.30;;
7049;SDS011;22263;52.260;10.548;2024-03-22T12:31:57;0.30;;;0.30;;
7049;SDS011;22263;52.260;10.548;2024-03-22T12:34:23;0.30;;;0.30;;
7049;SDS011;22263;52.260;10.548;2024-03-22T12:36:49;0.30;;;0.30;;
7049;SDS011;22263;52.260;10.548;2024-03-22T12:39:18;0.30;;;0.30;;
7049;SDS011;22263;52.260;10.548;2024-03-22T12:41:44;0.30;;;0.30;;
7049;SDS011;22263;52.260;10.548;2024-03-22T12:44:09;0.30;;;0.30;;
7049;SDS011;22263;52.260;10.548;2024-03-22T12:46:35;0.40;;;0.40;;
7049;SDS011;22263;52.260;10.548;2024-03-22T12:49:01;0.30;;;0.30;;
7049;SDS011;22263;52.260;10.548;2024-03-22T12:51:27;0.30;;;0.30;;
7049;SDS011;22263;52.260;10.548;2024-03-22T12:53:53;0.40;;;0.40;;
7049;SDS011;22263;52.260;10.548;2024-03-22T12:56:21;0.30;;;0.30;;
7049;SDS011;22263;52.260;10.548;2024-03-22T12:58:47;0.40;;;0.40;;
7049;SDS011;22263;52.260;10.548;2024-03-22T13:01:13;0.30;;;0.30;;
7049;SDS011;22263;52.260;10.548;2024-03-22T13:03:39;0.30;;;0.30;;
7049;SDS011;22263;52.260;10.548;2024-03-22T13:06:05;0.30;;;0.30;;
7049;SDS011;22263;52.260;10.548;2024-03-22T13:08:31;0.30;;;0.30;;
7049;SDS011;22263;52.260;10.548;2024-03-22T13:10:57;0.30;;;0.30;;
7049;SDS011;22263;52.260;10.548;2024-03-22T13:13:25;0.30;;;0.30;;
7049;SDS011;22263;52.260;10.548;2024-03-22T13:15:51;0.30;;;0.30;;
7049;SDS011;22263;52.260;10.548;2024-03-22T13:18:17;0.30;;;0.30;;
7049;SDS011;22263;52.260;10.548;2024-03-22T13:20:43;0.30;;;0.30;;
7049;SDS011;22263;52.260;10.548;2024-03-22T13:23:12;0.30;;;0.30;;
7049;SDS011;22263;52.260;10.548;2024-03-22T13:25:38;0.30;;;0.30;;
7049;SDS011;22263;52.260;10.548;2024-03-22T13:28:04;0.30;;;0.30;;
7049;SDS011;22263;52.260;10.548;2024-03-22T13:30:33;0.30;;;0.30;;
7049;SDS011;22263;52.260;10.548;2024-03-22T13:33:00;0.30;;;0.30;;
7049;SDS011;22263;52.260;10.548;2024-03-22T13:35:26;0.30;;;0.30;;
7049;SDS011;22263;52.260;10.548;2024-03-22T13:37:52;0.30;;;0.30;;
7049;SDS011;22263;52.260;10.548;2024-03-22T13:40:18;0.30;;;0.30;;
7049;SDS011;22263;52.260;10.548;2024-03-22T13:42:44;0.30;;;0.30;;
7049;SDS011;22263;52.260;10.548;2024-03-22T13:45:10;0.20;;;0.20;;
7049;SDS011;22263;52.260;10.548;2024-03-22T13:47:38;0.30;;;0.30;;
7049;SDS011;22263;52.260;10.548;2024-03-22T13:50:04;0.30;;;0.30;;
7049;SDS011;22263;52.260;10.548;2024-03-22T13:52:31;0.40;;;0.40;;
7049;SDS011;22263;52.260;10.548;2024-03-22T13:54:56;0.30;;;0.30;;
7049;SDS011;22263;52.260;10.548;2024-03-22T13:57:22;0.30;;;0.30;;
7049;SDS011;22263;52.260;10.548;2024-03-22T13:59:49;0.30;;;0.30;;
7049;SDS011;22263;52.260;10.548;2024-03-22T14:02:15;0.30;;;0.30;;
7049;SDS011;22263;52.260;10.548;2024-03-22T14:04:43;0.30;;;0.30;;
7049;SDS011;22263;52.260;10.548;2024-03-22T14:07:09;0.40;;;0.40;;
7049;SDS011;22263;52.260;10.548;2024-03-22T14:09:35;0.40;;;0.40;;
7049;SDS011;22263;52.260;10.548;2024-03-22T14:12:01;0.30;;;0.30;;
7049;SDS011;22263;52.260;10.548;2024-03-22T14:14:27;0.30;;;0.30;;
7049;SDS011;22263;52.260;10.548;2024-03-22T14:16:54;0.30;;;0.30;;
7049;SDS011;22263;52.260;10.548;2024-03-22T14:19:20;0.30;;;0.30;;
7049;SDS011;22263;52.260;10.548;2024-03-22T14:21:49;0.30;;;0.30;;
7049;SDS011;22263;52.260;10.548;2024-03-22T14:24:15;0.30;;;0.30;;
7049;SDS011;22263;52.260;10.548;2024-03-22T14:26:41;0.30;;;0.30;;
7049;SDS011;22263;52.260;10.548;2024-03-22T14:29:07;0.30;;;0.30;;
7049;SDS011;22263;52.260;10.548;2024-03-22T14:31:33;0.30;;;0.30;;
7049;SDS011;22263;52.260;10.548;2024-03-22T14:33:59;0.35;;;0.35;;
7049;SDS011;22263;52.260;10.548;2024-03-22T14:36:25;0.30;;;0.30;;
7049;SDS011;22263;52.260;10.548;2024-03-22T14:38:53;0.30;;;0.30;;
7049;SDS011;22263;52.260;10.548;2024-03-22T14:41:19;0.30;;;0.30;;
7049;SDS011;22263;52.260;10.548;2024-03-22T14:43:45;0.40;;;0.40;;